sensor_id;sensor_type;location;lat;lon;timestamp;temperature;humidity
5842;DHT22;2947;52.276;9.946;2022-08-25T00:01:26;21.40;99.90
5842;DHT22;2947;52.276;9.946;2022-08-25T00:03:58;21.40;99.90
5842;DHT22;2947;52.276;9.946;2022-08-25T00:06:25;21.40;99.90
5842;DHT22;2947;52.276;9.946;2022-08-25T00:08:50;21.40;99.90
5842;DHT22;2947;52.276;9.946;2022-08-25T00:11:21;21.40;99.90
5842;DHT22;2947;52.276;9.946;2022-08-25T00:13:51;21.30;99.90
5842;DHT22;2947;52.276;9.946;2022-08-25T00:16:20;21.20;99.90
5842;DHT22;2947;52.276;9.946;2022-08-25T00:18:52;21.30;99.90
5842;DHT22;2947;52.276;9.946;2022-08-25T00:21:20;21.10;99.90
5842;DHT22;2947;52.276;9.946;2022-08-25T00:23:46;21.20;99.90
5842;DHT22;2947;52.276;9.946;2022-08-25T00:26:13;22.30;99.90
5842;DHT22;2947;52.276;9.946;2022-08-25T00:28:40;21.20;99.90
5842;DHT22;2947;52.276;9.946;2022-08-25T00:31:14;21.10;99.90
5842;DHT22;2947;52.276;9.946;2022-08-25T00:33:43;21.10;1.00
5842;DHT22;2947;52.276;9.946;2022-08-25T00:36:09;21.10;1.00
5842;DHT22;2947;52.276;9.946;2022-08-25T00:38:38;21.00;1.00
5842;DHT22;2947;52.276;9.946;2022-08-25T00:41:06;21.00;99.90
5842;DHT22;2947;52.276;9.946;2022-08-25T00:46:17;20.90;1.00
5842;DHT22;2947;52.276;9.946;2022-08-25T00:48:50;20.90;1.00
5842;DHT22;2947;52.276;9.946;2022-08-25T00:51:24;20.90;1.00
5842;DHT22;2947;52.276;9.946;2022-08-25T00:53:57;20.70;1.00
5842;DHT22;2947;52.276;9.946;2022-08-25T00:56:24;20.70;11.70
5842;DHT22;2947;52.276;9.946;2022-08-25T00:58:50;20.60;9.70
5842;DHT22;2947;52.276;9.946;2022-08-25T01:01:16;20.60;62.90
5842;DHT22;2947;52.276;9.946;2022-08-25T01:03:42;20.60;77.70
5842;DHT22;2947;52.276;9.946;2022-08-25T01:06:08;20.60;91.20
5842;DHT22;2947;52.276;9.946;2022-08-25T01:08:35;20.60;99.90
5842;DHT22;2947;52.276;9.946;2022-08-25T01:11:04;20.60;99.90
5842;DHT22;2947;52.276;9.946;2022-08-25T01:13:38;20.60;99.90
5842;DHT22;2947;52.276;9.946;2022-08-25T01:16:07;20.50;99.90
5842;DHT22;2947;52.276;9.946;2022-08-25T01:18:55;20.50;99.90
5842;DHT22;2947;52.276;9.946;2022-08-25T01:21:24;20.40;1.00
5842;DHT22;2947;52.276;9.946;2022-08-25T01:23:52;20.40;1.00
5842;DHT22;2947;52.276;9.946;2022-08-25T01:26:22;20.50;1.00
5842;DHT22;2947;52.276;9.946;2022-08-25T01:28:50;20.30;1.00
5842;DHT22;2947;52.276;9.946;2022-08-25T01:31:35;20.20;99.90
5842;DHT22;2947;52.276;9.946;2022-08-25T01:34:04;20.90;99.90
5842;DHT22;2947;52.276;9.946;2022-08-25T01:36:31;20.00;1.00
5842;DHT22;2947;52.276;9.946;2022-08-25T01:38:58;20.00;99.90
5842;DHT22;2947;52.276;9.946;2022-08-25T01:44:13;19.80;1.00
5842;DHT22;2947;52.276;9.946;2022-08-25T01:46:39;19.80;19.20
5842;DHT22;2947;52.276;9.946;2022-08-25T01:49:05;19.70;99.90
5842;DHT22;2947;52.276;9.946;2022-08-25T01:51:42;19.70;1.00
5842;DHT22;2947;52.276;9.946;2022-08-25T01:54:11;19.60;99.90
5842;DHT22;2947;52.276;9.946;2022-08-25T01:56:37;19.50;1.00
5842;DHT22;2947;52.276;9.946;2022-08-25T01:59:03;19.50;13.00
5842;DHT22;2947;52.276;9.946;2022-08-25T02:01:29;19.50;99.90
5842;DHT22;2947;52.276;9.946;2022-08-25T02:03:55;19.50;99.90
5842;DHT22;2947;52.276;9.946;2022-08-25T02:06:25;19.50;32.60
5842;DHT22;2947;52.276;9.946;2022-08-25T02:08:56;19.40;99.90
5842;DHT22;2947;52.276;9.946;2022-08-25T02:11:24;19.40;1.00
5842;DHT22;2947;52.276;9.946;2022-08-25T02:13:50;19.40;1.00
5842;DHT22;2947;52.276;9.946;2022-08-25T02:16:30;19.40;1.00
5842;DHT22;2947;52.276;9.946;2022-08-25T02:18:58;19.30;2.00
5842;DHT22;2947;52.276;9.946;2022-08-25T02:21:25;19.30;99.90
5842;DHT22;2947;52.276;9.946;2022-08-25T02:23:51;19.20;1.00
5842;DHT22;2947;52.276;9.946;2022-08-25T02:26:17;19.20;99.90
5842;DHT22;2947;52.276;9.946;2022-08-25T02:28:48;19.20;1.00
5842;DHT22;2947;52.276;9.946;2022-08-25T02:31:16;19.20;1.00
5842;DHT22;2947;52.276;9.946;2022-08-25T02:33:43;19.30;1.00
5842;DHT22;2947;52.276;9.946;2022-08-25T02:36:09;19.30;1.00
5842;DHT22;2947;52.276;9.946;2022-08-25T02:38:35;19.30;1.00
5842;DHT22;2947;52.276;9.946;2022-08-25T02:41:08;19.30;70.20
5842;DHT22;2947;52.276;9.946;2022-08-25T02:43:37;19.30;99.90
5842;DHT22;2947;52.276;9.946;2022-08-25T02:46:04;19.30;99.90
5842;DHT22;2947;52.276;9.946;2022-08-25T02:48:30;19.30;85.40
5842;DHT22;2947;52.276;9.946;2022-08-25T02:50:59;19.30;1.00
5842;DHT22;2947;52.276;9.946;2022-08-25T02:53:26;19.30;99.90
5842;DHT22;2947;52.276;9.946;2022-08-25T02:55:53;19.30;99.90
5842;DHT22;2947;52.276;9.946;2022-08-25T02:58:20;19.30;99.90
5842;DHT22;2947;52.276;9.946;2022-08-25T03:00:47;19.30;99.90
5842;DHT22;2947;52.276;9.946;2022-08-25T03:03:14;19.30;1.00
5842;DHT22;2947;52.276;9.946;2022-08-25T03:05:40;19.20;1.00
5842;DHT22;2947;52.276;9.946;2022-08-25T03:08:07;19.20;1.00
5842;DHT22;2947;52.276;9.946;2022-08-25T03:10:33;19.20;1.00
5842;DHT22;2947;52.276;9.946;2022-08-25T03:13:00;19.10;99.90
5842;DHT22;2947;52.276;9.946;2022-08-25T03:15:26;19.10;99.90
5842;DHT22;2947;52.276;9.946;2022-08-25T03:17:53;19.00;99.90
5842;DHT22;2947;52.276;9.946;2022-08-25T03:20:21;19.00;99.90
5842;DHT22;2947;52.276;9.946;2022-08-25T03:22:48;19.00;99.90
5842;DHT22;2947;52.276;9.946;2022-08-25T03:25:14;19.00;99.90
5842;DHT22;2947;52.276;9.946;2022-08-25T03:27:59;19.00;99.90
5842;DHT22;2947;52.276;9.946;2022-08-25T03:30:27;19.00;99.90
5842;DHT22;2947;52.276;9.946;2022-08-25T03:32:54;19.00;99.90
5842;DHT22;2947;52.276;9.946;2022-08-25T03:35:20;19.00;99.90
5842;DHT22;2947;52.276;9.946;2022-08-25T03:37:45;18.90;99.90
5842;DHT22;2947;52.276;9.946;2022-08-25T03:40:13;18.90;99.90
5842;DHT22;2947;52.276;9.946;2022-08-25T03:42:42;18.90;99.90
5842;DHT22;2947;52.276;9.946;2022-08-25T03:45:09;18.90;99.90
5842;DHT22;2947;52.276;9.946;2022-08-25T03:47:39;18.90;1.00
5842;DHT22;2947;52.276;9.946;2022-08-25T03:50:08;18.90;1.00
5842;DHT22;2947;52.276;9.946;2022-08-25T03:52:35;18.80;1.00
5842;DHT22;2947;52.276;9.946;2022-08-25T03:55:06;18.80;1.00
5842;DHT22;2947;52.276;9.946;2022-08-25T03:57:34;18.70;1.00
5842;DHT22;2947;52.276;9.946;2022-08-25T04:00:00;18.70;1.00
5842;DHT22;2947;52.276;9.946;2022-08-25T04:02:26;18.70;1.00
5842;DHT22;2947;52.276;9.946;2022-08-25T04:04:52;18.70;1.00
5842;DHT22;2947;52.276;9.946;2022-08-25T04:07:18;18.60;1.00
5842;DHT22;2947;52.276;9.946;2022-08-25T04:09:44;18.70;1.00
5842;DHT22;2947;52.276;9.946;2022-08-25T04:12:10;20.00;1.00
5842;DHT22;2947;52.276;9.946;2022-08-25T04:14:36;18.60;1.00
5842;DHT22;2947;52.276;9.946;2022-08-25T04:17:02;18.60;1.00
5842;DHT22;2947;52.276;9.946;2022-08-25T04:19:28;16.90;1.00
5842;DHT22;2947;52.276;9.946;2022-08-25T04:21:54;18.60;1.00
5842;DHT22;2947;52.276;9.946;2022-08-25T04:24:20;19.60;1.00
5842;DHT22;2947;52.276;9.946;2022-08-25T04:26:49;18.60;1.00
5842;DHT22;2947;52.276;9.946;2022-08-25T04:29:19;18.60;1.00
5842;DHT22;2947;52.276;9.946;2022-08-25T04:31:46;18.60;1.00
5842;DHT22;2947;52.276;9.946;2022-08-25T04:34:15;19.80;1.00
5842;DHT22;2947;52.276;9.946;2022-08-25T04:36:42;18.60;1.00
5842;DHT22;2947;52.276;9.946;2022-08-25T04:39:08;18.60;1.00
5842;DHT22;2947;52.276;9.946;2022-08-25T04:41:34;18.60;1.00
5842;DHT22;2947;52.276;9.946;2022-08-25T04:44:00;18.50;1.00
5842;DHT22;2947;52.276;9.946;2022-08-25T04:46:30;18.60;1.00
5842;DHT22;2947;52.276;9.946;2022-08-25T04:48:58;18.40;1.00
5842;DHT22;2947;52.276;9.946;2022-08-25T04:51:29;18.50;1.00
5842;DHT22;2947;52.276;9.946;2022-08-25T04:53:58;18.50;1.00
5842;DHT22;2947;52.276;9.946;2022-08-25T04:56:26;18.50;1.00
5842;DHT22;2947;52.276;9.946;2022-08-25T04:58:54;18.50;1.00
5842;DHT22;2947;52.276;9.946;2022-08-25T05:01:23;18.50;1.00
5842;DHT22;2947;52.276;9.946;2022-08-25T05:03:55;18.50;1.00
5842;DHT22;2947;52.276;9.946;2022-08-25T05:06:23;18.50;1.00
5842;DHT22;2947;52.276;9.946;2022-08-25T05:08:49;18.60;1.00
5842;DHT22;2947;52.276;9.946;2022-08-25T05:11:17;18.50;1.00
5842;DHT22;2947;52.276;9.946;2022-08-25T05:13:48;18.50;1.00
5842;DHT22;2947;52.276;9.946;2022-08-25T05:16:15;19.30;1.00
5842;DHT22;2947;52.276;9.946;2022-08-25T05:18:42;18.60;1.00
5842;DHT22;2947;52.276;9.946;2022-08-25T05:21:14;18.70;1.00
5842;DHT22;2947;52.276;9.946;2022-08-25T05:23:42;18.70;1.00
5842;DHT22;2947;52.276;9.946;2022-08-25T05:26:12;18.80;1.00
5842;DHT22;2947;52.276;9.946;2022-08-25T05:28:39;18.90;1.00
5842;DHT22;2947;52.276;9.946;2022-08-25T05:31:07;19.00;1.00
5842;DHT22;2947;52.276;9.946;2022-08-25T05:33:35;19.10;1.00
5842;DHT22;2947;52.276;9.946;2022-08-25T05:36:03;19.10;1.00
5842;DHT22;2947;52.276;9.946;2022-08-25T05:38:29;19.20;1.00
5842;DHT22;2947;52.276;9.946;2022-08-25T05:40:57;19.30;1.00
5842;DHT22;2947;52.276;9.946;2022-08-25T05:43:24;19.40;1.00
5842;DHT22;2947;52.276;9.946;2022-08-25T05:45:54;19.50;1.00
5842;DHT22;2947;52.276;9.946;2022-08-25T05:48:23;20.00;1.00
5842;DHT22;2947;52.276;9.946;2022-08-25T05:50:53;19.70;1.00
5842;DHT22;2947;52.276;9.946;2022-08-25T05:53:21;19.80;1.00
5842;DHT22;2947;52.276;9.946;2022-08-25T05:55:48;19.80;1.00
5842;DHT22;2947;52.276;9.946;2022-08-25T05:58:16;19.90;1.00
5842;DHT22;2947;52.276;9.946;2022-08-25T06:00:41;20.00;1.00
5842;DHT22;2947;52.276;9.946;2022-08-25T06:03:07;20.10;1.00
5842;DHT22;2947;52.276;9.946;2022-08-25T06:05:33;20.20;1.00
5842;DHT22;2947;52.276;9.946;2022-08-25T06:07:59;20.20;1.00
5842;DHT22;2947;52.276;9.946;2022-08-25T06:10:25;20.40;1.00
5842;DHT22;2947;52.276;9.946;2022-08-25T06:12:52;20.40;1.00
5842;DHT22;2947;52.276;9.946;2022-08-25T06:15:21;20.50;1.00
5842;DHT22;2947;52.276;9.946;2022-08-25T06:17:49;20.60;1.00
5842;DHT22;2947;52.276;9.946;2022-08-25T06:20:18;20.70;1.00
5842;DHT22;2947;52.276;9.946;2022-08-25T06:22:48;20.80;1.00
5842;DHT22;2947;52.276;9.946;2022-08-25T06:25:17;20.90;1.00
5842;DHT22;2947;52.276;9.946;2022-08-25T06:27:44;21.00;1.00
5842;DHT22;2947;52.276;9.946;2022-08-25T06:30:14;21.20;99.90
5842;DHT22;2947;52.276;9.946;2022-08-25T06:32:43;21.30;99.90
5842;DHT22;2947;52.276;9.946;2022-08-25T06:35:16;21.40;99.90
5842;DHT22;2947;52.276;9.946;2022-08-25T06:37:43;21.60;99.90
5842;DHT22;2947;52.276;9.946;2022-08-25T06:40:11;21.60;99.90
5842;DHT22;2947;52.276;9.946;2022-08-25T06:42:37;21.70;99.90
5842;DHT22;2947;52.276;9.946;2022-08-25T06:45:04;21.80;99.90
5842;DHT22;2947;52.276;9.946;2022-08-25T06:47:31;21.90;99.90
5842;DHT22;2947;52.276;9.946;2022-08-25T06:49:56;22.00;99.90
5842;DHT22;2947;52.276;9.946;2022-08-25T06:52:23;22.10;95.70
5842;DHT22;2947;52.276;9.946;2022-08-25T06:54:48;22.20;99.90
5842;DHT22;2947;52.276;9.946;2022-08-25T06:57:15;22.30;17.10
5842;DHT22;2947;52.276;9.946;2022-08-25T06:59:41;22.40;1.00
5842;DHT22;2947;52.276;9.946;2022-08-25T07:02:07;24.40;1.00
5842;DHT22;2947;52.276;9.946;2022-08-25T07:04:33;22.60;99.90
5842;DHT22;2947;52.276;9.946;2022-08-25T07:06:59;22.70;99.90
5842;DHT22;2947;52.276;9.946;2022-08-25T07:09:25;22.80;1.00
5842;DHT22;2947;52.276;9.946;2022-08-25T07:11:50;22.90;99.90
5842;DHT22;2947;52.276;9.946;2022-08-25T07:14:17;23.00;99.90
5842;DHT22;2947;52.276;9.946;2022-08-25T07:16:44;23.20;1.00
5842;DHT22;2947;52.276;9.946;2022-08-25T07:19:10;23.30;1.00
5842;DHT22;2947;52.276;9.946;2022-08-25T07:21:38;23.40;99.90
5842;DHT22;2947;52.276;9.946;2022-08-25T07:24:08;23.50;1.00
5842;DHT22;2947;52.276;9.946;2022-08-25T07:26:36;23.60;99.90
5842;DHT22;2947;52.276;9.946;2022-08-25T07:29:08;23.70;1.00
5842;DHT22;2947;52.276;9.946;2022-08-25T07:31:36;23.80;99.90
5842;DHT22;2947;52.276;9.946;2022-08-25T07:34:02;23.90;99.90
5842;DHT22;2947;52.276;9.946;2022-08-25T07:36:47;24.00;1.00
5842;DHT22;2947;52.276;9.946;2022-08-25T07:39:12;24.00;99.90
5842;DHT22;2947;52.276;9.946;2022-08-25T07:41:40;24.10;91.90
5842;DHT22;2947;52.276;9.946;2022-08-25T07:44:08;24.30;99.90
5842;DHT22;2947;52.276;9.946;2022-08-25T07:46:34;24.40;1.00
5842;DHT22;2947;52.276;9.946;2022-08-25T07:49:00;24.60;1.00
5842;DHT22;2947;52.276;9.946;2022-08-25T07:51:26;24.60;99.90
5842;DHT22;2947;52.276;9.946;2022-08-25T07:53:52;24.80;99.90
5842;DHT22;2947;52.276;9.946;2022-08-25T07:56:18;25.00;1.00
5842;DHT22;2947;52.276;9.946;2022-08-25T07:58:44;25.10;1.00
5842;DHT22;2947;52.276;9.946;2022-08-25T08:01:19;25.20;1.00
5842;DHT22;2947;52.276;9.946;2022-08-25T08:03:47;25.30;99.90
5842;DHT22;2947;52.276;9.946;2022-08-25T08:06:15;25.30;99.90
5842;DHT22;2947;52.276;9.946;2022-08-25T08:08:43;25.40;99.90
5842;DHT22;2947;52.276;9.946;2022-08-25T08:11:15;25.50;83.90
5842;DHT22;2947;52.276;9.946;2022-08-25T08:13:46;25.50;47.80
5842;DHT22;2947;52.276;9.946;2022-08-25T08:16:14;25.60;1.00
5842;DHT22;2947;52.276;9.946;2022-08-25T08:18:42;25.70;16.20
5842;DHT22;2947;52.276;9.946;2022-08-25T08:21:13;25.90;1.00
5842;DHT22;2947;52.276;9.946;2022-08-25T08:23:40;26.10;1.00
5842;DHT22;2947;52.276;9.946;2022-08-25T08:26:06;26.20;1.00
5842;DHT22;2947;52.276;9.946;2022-08-25T08:28:32;26.30;99.90
5842;DHT22;2947;52.276;9.946;2022-08-25T08:30:58;26.50;99.90
5842;DHT22;2947;52.276;9.946;2022-08-25T08:33:24;26.50;99.90
5842;DHT22;2947;52.276;9.946;2022-08-25T08:36:02;26.60;99.90
5842;DHT22;2947;52.276;9.946;2022-08-25T08:38:30;26.70;99.90
5842;DHT22;2947;52.276;9.946;2022-08-25T08:44:18;26.90;99.90
5842;DHT22;2947;52.276;9.946;2022-08-25T08:52:46;27.10;1.00
5842;DHT22;2947;52.276;9.946;2022-08-25T08:55:39;27.20;1.00
5842;DHT22;2947;52.276;9.946;2022-08-25T08:58:22;27.40;1.00
5842;DHT22;2947;52.276;9.946;2022-08-25T09:00:56;27.40;1.00
5842;DHT22;2947;52.276;9.946;2022-08-25T09:03:48;27.80;1.00
5842;DHT22;2947;52.276;9.946;2022-08-25T09:08:59;27.70;1.00
5842;DHT22;2947;52.276;9.946;2022-08-25T09:11:47;27.90;1.00
5842;DHT22;2947;52.276;9.946;2022-08-25T09:29:09;28.30;99.90
5842;DHT22;2947;52.276;9.946;2022-08-25T09:31:41;28.20;99.90
5842;DHT22;2947;52.276;9.946;2022-08-25T09:34:19;28.20;99.90
5842;DHT22;2947;52.276;9.946;2022-08-25T09:36:48;28.20;99.90
5842;DHT22;2947;52.276;9.946;2022-08-25T09:39:17;28.20;99.90
5842;DHT22;2947;52.276;9.946;2022-08-25T09:41:51;28.00;99.90
5842;DHT22;2947;52.276;9.946;2022-08-25T09:46:56;28.00;99.90
5842;DHT22;2947;52.276;9.946;2022-08-25T09:49:58;28.20;99.90
5842;DHT22;2947;52.276;9.946;2022-08-25T09:52:32;28.10;99.90
5842;DHT22;2947;52.276;9.946;2022-08-25T10:03:10;28.40;99.90
5842;DHT22;2947;52.276;9.946;2022-08-25T10:11:08;28.60;99.90
5842;DHT22;2947;52.276;9.946;2022-08-25T10:13:41;28.50;99.90
5842;DHT22;2947;52.276;9.946;2022-08-25T10:16:24;28.50;99.90
5842;DHT22;2947;52.276;9.946;2022-08-25T10:24:30;28.60;99.90
5842;DHT22;2947;52.276;9.946;2022-08-25T10:27:39;28.50;99.90
5842;DHT22;2947;52.276;9.946;2022-08-25T10:30:11;28.50;99.90
5842;DHT22;2947;52.276;9.946;2022-08-25T10:32:59;28.70;99.90
5842;DHT22;2947;52.276;9.946;2022-08-25T10:38:41;28.90;99.90
5842;DHT22;2947;52.276;9.946;2022-08-25T10:53:10;29.30;99.90
5842;DHT22;2947;52.276;9.946;2022-08-25T10:55:48;29.30;99.90
5842;DHT22;2947;52.276;9.946;2022-08-25T10:58:27;29.30;99.90
5842;DHT22;2947;52.276;9.946;2022-08-25T11:04:45;29.40;99.90
5842;DHT22;2947;52.276;9.946;2022-08-25T11:07:36;29.30;99.90
5842;DHT22;2947;52.276;9.946;2022-08-25T11:12:57;29.40;99.90
5842;DHT22;2947;52.276;9.946;2022-08-25T11:15:31;28.30;99.90
5842;DHT22;2947;52.276;9.946;2022-08-25T11:18:08;29.30;99.90
5842;DHT22;2947;52.276;9.946;2022-08-25T11:20:55;29.20;99.90
5842;DHT22;2947;52.276;9.946;2022-08-25T11:23:48;29.20;99.90
5842;DHT22;2947;52.276;9.946;2022-08-25T11:26:25;29.20;99.90
5842;DHT22;2947;52.276;9.946;2022-08-25T11:29:13;29.40;99.90
5842;DHT22;2947;52.276;9.946;2022-08-25T11:31:45;29.50;99.90
5842;DHT22;2947;52.276;9.946;2022-08-25T11:34:13;29.60;99.90
5842;DHT22;2947;52.276;9.946;2022-08-25T11:36:43;29.60;99.90
5842;DHT22;2947;52.276;9.946;2022-08-25T11:39:39;29.70;99.90
5842;DHT22;2947;52.276;9.946;2022-08-25T11:48:33;29.80;99.90
5842;DHT22;2947;52.276;9.946;2022-08-25T11:51:39;29.90;99.90
5842;DHT22;2947;52.276;9.946;2022-08-25T11:54:17;30.00;99.90
5842;DHT22;2947;52.276;9.946;2022-08-25T11:57:06;30.10;99.90
5842;DHT22;2947;52.276;9.946;2022-08-25T12:00:03;30.20;99.90
5842;DHT22;2947;52.276;9.946;2022-08-25T12:11:02;30.40;99.90
5842;DHT22;2947;52.276;9.946;2022-08-25T12:13:45;30.30;99.90
5842;DHT22;2947;52.276;9.946;2022-08-25T12:16:37;30.40;99.90
5842;DHT22;2947;52.276;9.946;2022-08-25T12:27:38;30.60;99.90
5842;DHT22;2947;52.276;9.946;2022-08-25T12:30:18;30.80;99.90
5842;DHT22;2947;52.276;9.946;2022-08-25T12:36:05;30.90;99.90
5842;DHT22;2947;52.276;9.946;2022-08-25T12:38:45;31.10;99.90
5842;DHT22;2947;52.276;9.946;2022-08-25T12:41:23;31.10;99.90
5842;DHT22;2947;52.276;9.946;2022-08-25T12:43:53;31.10;99.90
5842;DHT22;2947;52.276;9.946;2022-08-25T12:46:37;31.10;99.90
5842;DHT22;2947;52.276;9.946;2022-08-25T12:49:11;31.20;99.90
5842;DHT22;2947;52.276;9.946;2022-08-25T12:52:05;31.30;99.90
5842;DHT22;2947;52.276;9.946;2022-08-25T12:54:54;31.30;99.90
5842;DHT22;2947;52.276;9.946;2022-08-25T12:57:45;31.30;99.90
5842;DHT22;2947;52.276;9.946;2022-08-25T13:00:28;31.40;99.90
5842;DHT22;2947;52.276;9.946;2022-08-25T13:03:44;31.50;99.90
5842;DHT22;2947;52.276;9.946;2022-08-25T13:06:14;31.60;99.90
5842;DHT22;2947;52.276;9.946;2022-08-25T13:14:45;31.30;99.90
5842;DHT22;2947;52.276;9.946;2022-08-25T13:17:26;31.30;99.90
5842;DHT22;2947;52.276;9.946;2022-08-25T13:20:24;31.00;99.90
5842;DHT22;2947;52.276;9.946;2022-08-25T13:22:58;31.00;99.90
5842;DHT22;2947;52.276;9.946;2022-08-25T13:25:27;31.00;99.90
5842;DHT22;2947;52.276;9.946;2022-08-25T13:27:57;30.90;99.90
5842;DHT22;2947;52.276;9.946;2022-08-25T13:30:28;30.90;99.90
5842;DHT22;2947;52.276;9.946;2022-08-25T13:32:56;30.90;99.90
5842;DHT22;2947;52.276;9.946;2022-08-25T13:37:50;30.70;99.90
5842;DHT22;2947;52.276;9.946;2022-08-25T13:40:25;30.60;99.90
5842;DHT22;2947;52.276;9.946;2022-08-25T13:43:00;30.70;99.90
5842;DHT22;2947;52.276;9.946;2022-08-25T13:45:31;30.60;99.90
5842;DHT22;2947;52.276;9.946;2022-08-25T13:48:01;30.50;99.90
5842;DHT22;2947;52.276;9.946;2022-08-25T13:50:31;30.50;99.90
5842;DHT22;2947;52.276;9.946;2022-08-25T13:53:25;30.60;99.90
5842;DHT22;2947;52.276;9.946;2022-08-25T13:55:53;30.50;99.90
5842;DHT22;2947;52.276;9.946;2022-08-25T14:03:41;30.60;99.90
5842;DHT22;2947;52.276;9.946;2022-08-25T14:06:23;30.50;99.90
5842;DHT22;2947;52.276;9.946;2022-08-25T14:11:41;30.30;99.90
5842;DHT22;2947;52.276;9.946;2022-08-25T14:14:31;30.30;99.90
5842;DHT22;2947;52.276;9.946;2022-08-25T14:17:09;30.50;99.90
5842;DHT22;2947;52.276;9.946;2022-08-25T14:19:44;30.50;99.90
5842;DHT22;2947;52.276;9.946;2022-08-25T14:22:12;30.30;99.90
5842;DHT22;2947;52.276;9.946;2022-08-25T14:24:38;30.30;99.90
5842;DHT22;2947;52.276;9.946;2022-08-25T14:27:04;30.40;99.90
5842;DHT22;2947;52.276;9.946;2022-08-25T14:29:30;30.40;99.90
5842;DHT22;2947;52.276;9.946;2022-08-25T14:31:57;30.30;99.90
5842;DHT22;2947;52.276;9.946;2022-08-25T14:34:33;30.30;99.90
5842;DHT22;2947;52.276;9.946;2022-08-25T14:37:15;30.30;99.90
5842;DHT22;2947;52.276;9.946;2022-08-25T14:39:42;30.30;99.90
5842;DHT22;2947;52.276;9.946;2022-08-25T14:42:09;30.20;99.90
5842;DHT22;2947;52.276;9.946;2022-08-25T14:44:36;30.20;99.90
5842;DHT22;2947;52.276;9.946;2022-08-25T14:47:02;30.20;99.90
5842;DHT22;2947;52.276;9.946;2022-08-25T14:49:34;30.20;99.90
5842;DHT22;2947;52.276;9.946;2022-08-25T14:52:13;30.20;99.90
5842;DHT22;2947;52.276;9.946;2022-08-25T14:54:42;30.10;99.90
5842;DHT22;2947;52.276;9.946;2022-08-25T14:57:09;30.10;99.90
5842;DHT22;2947;52.276;9.946;2022-08-25T14:59:34;30.10;99.90
5842;DHT22;2947;52.276;9.946;2022-08-25T15:02:00;30.00;99.90
5842;DHT22;2947;52.276;9.946;2022-08-25T15:04:27;30.00;99.90
5842;DHT22;2947;52.276;9.946;2022-08-25T15:06:57;29.90;99.90
5842;DHT22;2947;52.276;9.946;2022-08-25T15:09:25;29.80;99.90
5842;DHT22;2947;52.276;9.946;2022-08-25T15:11:53;29.80;99.90
5842;DHT22;2947;52.276;9.946;2022-08-25T15:14:23;29.70;99.90
5842;DHT22;2947;52.276;9.946;2022-08-25T15:16:53;29.80;99.90
5842;DHT22;2947;52.276;9.946;2022-08-25T15:19:23;29.80;99.90
5842;DHT22;2947;52.276;9.946;2022-08-25T15:21:53;29.70;99.90
5842;DHT22;2947;52.276;9.946;2022-08-25T15:24:20;29.80;99.90
5842;DHT22;2947;52.276;9.946;2022-08-25T15:26:59;29.80;99.90
5842;DHT22;2947;52.276;9.946;2022-08-25T15:29:28;29.70;99.90
5842;DHT22;2947;52.276;9.946;2022-08-25T15:31:55;29.70;99.90
5842;DHT22;2947;52.276;9.946;2022-08-25T15:34:22;29.70;99.90
5842;DHT22;2947;52.276;9.946;2022-08-25T15:36:47;29.70;99.90
5842;DHT22;2947;52.276;9.946;2022-08-25T15:39:14;28.80;99.90
5842;DHT22;2947;52.276;9.946;2022-08-25T15:41:40;29.70;99.90
5842;DHT22;2947;52.276;9.946;2022-08-25T15:44:07;29.70;99.90
5842;DHT22;2947;52.276;9.946;2022-08-25T15:46:36;29.60;99.90
5842;DHT22;2947;52.276;9.946;2022-08-25T15:49:02;29.60;99.90
5842;DHT22;2947;52.276;9.946;2022-08-25T15:51:29;29.60;99.90
5842;DHT22;2947;52.276;9.946;2022-08-25T15:53:56;29.60;99.90
5842;DHT22;2947;52.276;9.946;2022-08-25T15:56:22;29.60;99.90
5842;DHT22;2947;52.276;9.946;2022-08-25T15:58:49;29.50;99.90
5842;DHT22;2947;52.276;9.946;2022-08-25T16:01:17;29.50;99.90
5842;DHT22;2947;52.276;9.946;2022-08-25T16:03:46;29.50;99.90
5842;DHT22;2947;52.276;9.946;2022-08-25T16:06:12;29.40;99.90
5842;DHT22;2947;52.276;9.946;2022-08-25T16:08:38;29.40;99.90
5842;DHT22;2947;52.276;9.946;2022-08-25T16:11:05;29.40;99.90
5842;DHT22;2947;52.276;9.946;2022-08-25T16:13:41;29.30;99.90
5842;DHT22;2947;52.276;9.946;2022-08-25T16:16:07;29.40;99.90
5842;DHT22;2947;52.276;9.946;2022-08-25T16:18:33;29.40;99.90
5842;DHT22;2947;52.276;9.946;2022-08-25T16:20:59;29.30;99.90
5842;DHT22;2947;52.276;9.946;2022-08-25T16:23:25;29.30;99.90
5842;DHT22;2947;52.276;9.946;2022-08-25T16:25:51;29.40;99.90
5842;DHT22;2947;52.276;9.946;2022-08-25T16:28:19;29.30;99.90
5842;DHT22;2947;52.276;9.946;2022-08-25T16:30:48;29.30;99.90
5842;DHT22;2947;52.276;9.946;2022-08-25T16:33:15;29.30;99.90
5842;DHT22;2947;52.276;9.946;2022-08-25T16:35:42;29.20;99.90
5842;DHT22;2947;52.276;9.946;2022-08-25T16:38:09;26.50;99.90
5842;DHT22;2947;52.276;9.946;2022-08-25T16:40:40;29.20;99.90
5842;DHT22;2947;52.276;9.946;2022-08-25T16:43:08;29.20;99.90
5842;DHT22;2947;52.276;9.946;2022-08-25T16:45:34;29.20;99.90
5842;DHT22;2947;52.276;9.946;2022-08-25T16:48:01;29.30;99.90
5842;DHT22;2947;52.276;9.946;2022-08-25T16:50:28;29.30;99.90
5842;DHT22;2947;52.276;9.946;2022-08-25T16:52:56;29.30;99.90
5842;DHT22;2947;52.276;9.946;2022-08-25T16:55:42;29.30;99.90
5842;DHT22;2947;52.276;9.946;2022-08-25T16:58:09;29.20;99.90
5842;DHT22;2947;52.276;9.946;2022-08-25T17:00:36;29.20;99.90
5842;DHT22;2947;52.276;9.946;2022-08-25T17:03:04;29.20;99.90
5842;DHT22;2947;52.276;9.946;2022-08-25T17:05:31;30.40;99.90
5842;DHT22;2947;52.276;9.946;2022-08-25T17:07:59;29.10;99.90
5842;DHT22;2947;52.276;9.946;2022-08-25T17:10:44;29.10;99.90
5842;DHT22;2947;52.276;9.946;2022-08-25T17:13:10;29.10;99.90
5842;DHT22;2947;52.276;9.946;2022-08-25T17:15:42;29.10;99.90
5842;DHT22;2947;52.276;9.946;2022-08-25T17:18:10;29.10;99.90
5842;DHT22;2947;52.276;9.946;2022-08-25T17:20:36;29.00;99.90
5842;DHT22;2947;52.276;9.946;2022-08-25T17:23:03;29.10;99.90
5842;DHT22;2947;52.276;9.946;2022-08-25T17:25:33;29.70;99.90
5842;DHT22;2947;52.276;9.946;2022-08-25T17:28:00;29.00;99.90
5842;DHT22;2947;52.276;9.946;2022-08-25T17:30:27;29.00;99.90
5842;DHT22;2947;52.276;9.946;2022-08-25T17:32:53;29.00;99.90
5842;DHT22;2947;52.276;9.946;2022-08-25T17:35:19;29.00;99.90
5842;DHT22;2947;52.276;9.946;2022-08-25T17:37:45;28.90;99.90
5842;DHT22;2947;52.276;9.946;2022-08-25T17:40:12;28.90;99.90
5842;DHT22;2947;52.276;9.946;2022-08-25T17:42:38;28.90;99.90
5842;DHT22;2947;52.276;9.946;2022-08-25T17:45:04;28.90;99.90
5842;DHT22;2947;52.276;9.946;2022-08-25T17:47:32;28.80;99.90
5842;DHT22;2947;52.276;9.946;2022-08-25T17:49:58;28.80;99.90
5842;DHT22;2947;52.276;9.946;2022-08-25T17:52:24;28.70;99.90
5842;DHT22;2947;52.276;9.946;2022-08-25T17:54:50;28.60;99.90
5842;DHT22;2947;52.276;9.946;2022-08-25T17:57:17;28.60;99.90
5842;DHT22;2947;52.276;9.946;2022-08-25T17:59:43;28.50;99.90
5842;DHT22;2947;52.276;9.946;2022-08-25T18:02:09;28.50;99.90
5842;DHT22;2947;52.276;9.946;2022-08-25T18:04:36;28.50;99.90
5842;DHT22;2947;52.276;9.946;2022-08-25T18:07:02;28.40;99.90
5842;DHT22;2947;52.276;9.946;2022-08-25T18:09:29;28.40;99.90
5842;DHT22;2947;52.276;9.946;2022-08-25T18:11:55;28.30;99.90
5842;DHT22;2947;52.276;9.946;2022-08-25T18:14:21;28.30;99.90
5842;DHT22;2947;52.276;9.946;2022-08-25T18:16:48;28.10;99.90
5842;DHT22;2947;52.276;9.946;2022-08-25T18:19:16;28.10;99.90
5842;DHT22;2947;52.276;9.946;2022-08-25T18:21:42;28.10;99.90
5842;DHT22;2947;52.276;9.946;2022-08-25T18:24:08;28.00;99.90
5842;DHT22;2947;52.276;9.946;2022-08-25T18:26:33;28.00;99.90